Time;durP1;ratioP1;P1;durP2;ratioP2;P2;SDS_P1;SDS_P2;PMS_P1;PMS_P2;Temp;Humidity;BMP_temperature;BMP_pressure;BME280_temperature;BME280_humidity;BME280_pressure;Samples;Min_cycle;Max_cycle;Signal;HPM_P1;HPM_P2
2023/04/05 00:01:14;;;;;;;5.63;5.00;;;4.90;1.00;;;;;;5081272;28;21105;-80
2023/04/05 00:03:42;;;;;;;5.20;4.90;;;4.90;1.00;;;;;;5077217;28;20957;-79
2023/04/05 00:06:12;;;;;;;5.55;5.25;;;4.90;1.00;;;;;;5085085;28;20621;-79
2023/04/05 00:08:43;;;;;;;5.60;5.07;;;4.90;1.00;;;;;;5085806;28;20265;-79
2023/04/05 00:11:11;;;;;;;5.40;5.10;;;4.90;1.00;;;;;;5085013;28;20477;-79
2023/04/05 00:13:39;;;;;;;5.80;5.40;;;4.80;1.00;;;;;;5085380;28;20234;-79
2023/04/05 00:16:07;;;;;;;5.70;5.20;;;4.70;1.00;;;;;;5085373;28;20511;-79
2023/04/05 00:18:37;;;;;;;6.13;5.72;;;4.70;1.00;;;;;;5079157;28;20540;-78
2023/04/05 00:21:06;;;;;;;5.73;5.33;;;4.70;1.00;;;;;;5081172;28;20235;-78
2023/04/05 00:23:37;;;;;;;5.95;5.45;;;4.60;1.00;;;;;;5071743;28;20545;-79
2023/04/05 00:26:07;;;;;;;6.93;6.35;;;4.70;1.00;;;;;;5084226;28;20272;-78
2023/04/05 00:28:35;;;;;;;6.03;5.60;;;4.60;1.00;;;;;;5082932;28;20219;-78
2023/04/05 00:31:04;;;;;;;5.93;5.43;;;4.60;1.00;;;;;;5079688;28;20697;-79
2023/04/05 00:33:32;;;;;;;5.53;5.13;;;4.60;1.00;;;;;;5077057;28;20295;-80
2023/04/05 00:36:09;;;;;;;5.68;5.38;;;4.60;1.00;;;;;;5086488;28;20203;-79
2023/04/05 00:38:38;;;;;;;5.97;5.57;;;4.60;1.00;;;;;;5079529;28;20302;-79
2023/04/05 00:41:08;;;;;;;5.85;5.38;;;4.50;1.00;;;;;;5084426;28;20228;-78
2023/04/05 00:43:37;;;;;;;6.18;5.78;;;4.50;1.00;;;;;;5086435;28;20219;-78
2023/04/05 00:46:05;;;;;;;6.35;5.80;;;4.40;1.00;;;;;;5082624;28;20206;-75
2023/04/05 00:48:34;;;;;;;9.52;6.85;;;4.50;1.00;;;;;;5082716;28;21191;-79
2023/04/05 00:51:03;;;;;;;6.43;5.90;;;4.50;1.00;;;;;;5084802;28;20229;-78
2023/04/05 00:53:31;;;;;;;5.60;5.10;;;4.40;1.00;;;;;;5085900;28;20227;-79
2023/04/05 00:56:01;;;;;;;6.57;6.15;;;4.40;1.00;;;;;;5082746;28;20199;-79
2023/04/05 00:58:30;;;;;;;6.72;6.13;;;4.50;1.00;;;;;;5085591;28;20206;-78
2023/04/05 01:01:05;;;;;;;5.95;5.45;;;4.30;1.00;;;;;;5079925;28;20227;-78
2023/04/05 01:03:35;;;;;;;6.50;6.10;;;4.40;1.00;;;;;;5083074;28;20211;-79
2023/04/05 01:06:17;;;;;;;6.15;5.65;;;4.40;1.00;;;;;;5082635;28;20248;-79
2023/04/05 01:08:55;;;;;;;5.95;5.45;;;4.40;1.00;;;;;;5080872;28;20314;-79
2023/04/05 01:11:25;;;;;;;6.68;6.18;;;4.40;1.00;;;;;;5074682;28;20230;-78
2023/04/05 01:13:59;;;;;;;6.88;6.28;;;4.30;1.00;;;;;;5083426;28;20202;-79
2023/04/05 01:16:27;;;;;;;6.72;6.00;;;4.30;1.00;;;;;;5084243;28;20195;-78
2023/04/05 01:18:56;;;;;;;6.65;6.05;;;4.40;1.00;;;;;;5081285;28;20621;-81
2023/04/05 01:22:12;;;;;;;6.97;6.22;;;4.40;1.00;;;;;;5083461;28;20511;-79
2023/04/05 01:25:09;;;;;;;6.35;5.95;;;4.40;1.00;;;;;;5082224;28;20199;-79
2023/04/05 01:27:55;;;;;;;6.65;6.10;;;4.30;1.00;;;;;;5084282;28;20262;-79
2023/04/05 01:30:29;;;;;;;7.13;6.47;;;4.30;6.00;;;;;;5084866;28;20188;-78
2023/04/05 01:33:11;;;;;;;9.80;9.00;;;4.20;1.00;;;;;;5082772;28;20245;-78
2023/04/05 01:35:44;;;;;;;10.32;8.65;;;4.20;1.00;;;;;;5082855;28;20209;-79
2023/04/05 01:38:19;;;;;;;9.90;9.00;;;4.20;1.00;;;;;;5083961;28;20198;-80
2023/04/05 01:40:48;;;;;;;9.77;8.85;;;4.10;1.00;;;;;;5085278;28;20818;-78
2023/04/05 01:43:17;;;;;;;8.85;8.05;;;4.10;1.00;;;;;;5086328;28;20200;-79
2023/04/05 01:45:47;;;;;;;9.90;8.52;;;4.10;1.00;;;;;;5083804;28;20207;-78
2023/04/05 01:48:15;;;;;;;8.07;7.43;;;4.10;1.00;;;;;;5082534;28;20610;-78
2023/04/05 01:50:43;;;;;;;8.65;7.95;;;4.10;12.20;;;;;;5080882;28;20196;-77
2023/04/05 01:53:11;;;;;;;8.30;7.60;;;4.00;2.00;;;;;;5081077;28;20665;-78
2023/04/05 01:55:39;;;;;;;9.00;8.03;;;4.00;3.10;;;;;;5082961;28;20224;-78
2023/04/05 01:58:07;;;;;;;9.40;8.48;;;4.00;4.90;;;;;;5082960;28;20551;-78
2023/04/05 02:00:36;;;;;;;8.60;7.80;;;4.00;5.10;;;;;;5081616;28;20198;-79
2023/04/05 02:03:05;;;;;;;7.00;6.50;;;4.00;5.70;;;;;;5084821;28;20207;-79
2023/04/05 02:05:33;;;;;;;6.55;6.15;;;4.00;4.20;;;;;;5084343;28;20207;-78
2023/04/05 02:08:02;;;;;;;6.70;6.30;;;3.90;3.40;;;;;;5084552;28;20211;-78
2023/04/05 02:10:30;;;;;;;7.28;6.75;;;3.90;4.00;;;;;;5083679;28;20199;-78
2023/04/05 02:12:59;;;;;;;6.50;5.72;;;3.80;3.60;;;;;;5078380;28;20217;-78
2023/04/05 02:15:28;;;;;;;7.20;6.68;;;3.90;4.30;;;;;;5084233;28;20294;-78
2023/04/05 02:18:00;;;;;;;9.13;6.72;;;3.90;6.10;;;;;;5082030;28;20215;-77
2023/04/05 02:20:31;;;;;;;6.78;6.25;;;3.90;17.40;;;;;;5083674;28;20607;-78
2023/04/05 02:23:01;;;;;;;5.60;5.15;;;3.80;7.20;;;;;;5082556;28;20630;-78
2023/04/05 02:25:29;;;;;;;7.50;6.80;;;3.90;7.80;;;;;;5077469;28;20211;-79
2023/04/05 02:27:57;;;;;;;7.13;6.63;;;3.80;8.30;;;;;;5086446;28;20266;-80
2023/04/05 02:30:27;;;;;;;9.43;7.30;;;3.80;7.10;;;;;;5088475;28;20246;-79
2023/04/05 02:32:55;;;;;;;7.60;6.85;;;3.80;6.90;;;;;;5084951;28;20692;-79
2023/04/05 02:35:24;;;;;;;6.90;6.38;;;3.80;8.10;;;;;;5090508;28;20333;-78
2023/04/05 02:37:55;;;;;;;7.03;6.53;;;3.80;9.00;;;;;;5089577;28;20747;-76
2023/04/05 02:40:24;;;;;;;6.75;6.25;;;3.70;9.90;;;;;;5088121;28;20196;-79
2023/04/05 02:42:52;;;;;;;6.90;6.30;;;3.70;10.00;;;;;;5086917;28;20224;-79
2023/04/05 02:45:20;;;;;;;6.80;6.20;;;3.70;10.00;;;;;;5089512;28;20194;-80
2023/04/05 02:47:48;;;;;;;7.90;7.20;;;3.70;11.10;;;;;;5085035;28;20721;-80
2023/04/05 02:50:19;;;;;;;7.20;6.50;;;3.70;12.40;;;;;;5085577;28;20578;-81
2023/04/05 02:52:47;;;;;;;7.35;6.75;;;3.60;10.00;;;;;;5088669;28;20235;-78
2023/04/05 02:55:17;;;;;;;7.72;7.05;;;3.50;9.10;;;;;;5087979;28;20191;-80
2023/04/05 02:57:46;;;;;;;8.10;7.40;;;3.50;9.40;;;;;;5088437;28;20308;-81
2023/04/05 03:00:15;;;;;;;6.53;6.03;;;3.50;10.30;;;;;;5087053;28;20213;-80
2023/04/05 03:02:43;;;;;;;6.60;6.10;;;3.50;11.80;;;;;;5086375;28;20223;-80
2023/04/05 03:05:12;;;;;;;6.90;6.47;;;3.50;13.30;;;;;;5090128;28;20197;-80
2023/04/05 03:07:41;;;;;;;7.63;6.70;;;3.40;13.90;;;;;;5090091;28;20207;-79
2023/04/05 03:10:09;;;;;;;7.18;6.47;;;3.40;16.00;;;;;;5088312;28;20224;-78
2023/04/05 03:12:39;;;;;;;8.35;7.60;;;3.40;15.50;;;;;;5092003;28;20222;-79
2023/04/05 03:15:08;;;;;;;7.00;6.40;;;3.30;13.70;;;;;;5083929;28;20429;-79
2023/04/05 03:17:36;;;;;;;7.38;6.88;;;3.40;13.20;;;;;;5085084;28;20207;-80
2023/04/05 03:20:07;;;;;;;7.72;7.10;;;3.30;14.10;;;;;;5089580;28;20289;-79
2023/04/05 03:22:36;;;;;;;6.70;6.20;;;3.30;16.80;;;;;;5089309;28;20223;-79
2023/04/05 03:25:05;;;;;;;6.50;6.10;;;3.40;17.80;;;;;;5086133;28;20206;-78
2023/04/05 03:27:33;;;;;;;6.85;6.25;;;3.40;19.20;;;;;;5088075;28;20207;-78
2023/04/05 03:30:03;;;;;;;7.88;7.20;;;3.30;18.50;;;;;;5088835;28;20231;-80
2023/04/05 03:32:31;;;;;;;8.40;7.32;;;3.30;20.00;;;;;;5089592;28;20269;-80
2023/04/05 03:34:59;;;;;;;7.88;7.10;;;3.30;20.30;;;;;;5090058;28;20206;-80
2023/04/05 03:37:27;;;;;;;7.85;7.18;;;3.30;20.60;;;;;;5084781;28;20189;-80
2023/04/05 03:39:56;;;;;;;11.88;10.68;;;3.20;21.20;;;;;;5088812;28;20197;-79
2023/04/05 03:42:24;;;;;;;12.00;11.00;;;3.20;22.40;;;;;;5086480;28;20234;-79
2023/04/05 03:44:53;;;;;;;13.88;12.13;;;3.20;22.80;;;;;;5086513;28;20194;-80
2023/04/05 03:47:23;;;;;;;11.05;10.05;;;3.10;26.10;;;;;;5088065;28;20194;-79
2023/04/05 03:49:51;;;;;;;9.40;8.55;;;3.00;26.60;;;;;;5089858;28;20226;-79
2023/04/05 03:52:21;;;;;;;9.02;8.23;;;3.10;28.20;;;;;;5088613;28;20706;-78
2023/04/05 03:54:49;;;;;;;9.98;8.20;;;3.10;28.60;;;;;;5089842;28;20202;-79
2023/04/05 03:57:17;;;;;;;9.20;8.30;;;3.00;29.90;;;;;;5086586;28;20202;-79
2023/04/05 03:59:48;;;;;;;10.23;9.30;;;3.00;29.60;;;;;;5087748;28;20282;-79
2023/04/05 04:02:16;;;;;;;10.85;9.23;;;2.90;28.60;;;;;;5084058;28;20966;-80
2023/04/05 04:04:46;;;;;;;8.95;8.20;;;2.90;30.10;;;;;;5084336;28;20205;-78
2023/04/05 04:07:14;;;;;;;13.32;9.25;;;2.90;33.10;;;;;;5084885;28;20729;-77
2023/04/05 04:09:42;;;;;;;9.60;8.70;;;2.90;37.10;;;;;;5085918;28;20221;-79
2023/04/05 04:12:11;;;;;;;8.48;7.78;;;2.80;37.60;;;;;;5084619;28;20218;-79
2023/04/05 04:14:39;;;;;;;8.98;8.20;;;2.80;42.30;;;;;;5084225;28;20288;-79
2023/04/05 04:17:08;;;;;;;8.48;7.88;;;2.90;44.10;;;;;;5087259;28;21012;-79
2023/04/05 04:19:36;;;;;;;8.63;7.75;;;2.90;46.20;;;;;;5085061;28;20196;-79
2023/04/05 04:22:09;;;;;;;7.53;7.03;;;2.90;47.40;;;;;;5082396;28;20226;-78
2023/04/05 04:24:37;;;;;;;8.13;7.32;;;3.00;49.80;;;;;;5086699;28;20250;-78
2023/04/05 04:27:05;;;;;;;8.23;7.43;;;3.00;50.90;;;;;;5084713;28;20202;-78
2023/04/05 04:29:37;;;;;;;7.60;7.10;;;2.90;53.30;;;;;;5085420;28;20230;-79
2023/04/05 04:32:06;;;;;;;8.35;7.78;;;2.80;52.20;;;;;;5081633;28;20225;-79
2023/04/05 04:34:37;;;;;;;8.13;7.35;;;2.70;55.40;;;;;;5088243;28;20190;-79
2023/04/05 04:37:06;;;;;;;7.85;7.35;;;2.70;59.90;;;;;;5086832;28;20204;-76
2023/04/05 04:39:38;;;;;;;9.00;8.10;;;2.70;62.20;;;;;;5089722;28;20203;-74
2023/04/05 04:42:09;;;;;;;8.35;7.63;;;2.80;82.80;;;;;;5087119;28;20230;-78
2023/04/05 04:44:38;;;;;;;8.07;7.47;;;2.80;66.60;;;;;;5085744;28;20189;-78
2023/04/05 04:47:11;;;;;;;8.85;7.95;;;2.70;69.80;;;;;;5073400;28;20199;-79
2023/04/05 04:49:41;;;;;;;8.02;7.40;;;2.60;70.60;;;;;;5079155;28;20308;-78
2023/04/05 04:52:11;;;;;;;8.07;7.47;;;2.70;72.10;;;;;;5079230;28;20272;-79
2023/04/05 04:54:41;;;;;;;8.20;7.55;;;2.80;67.70;;;;;;5080663;28;20208;-79
2023/04/05 04:57:09;;;;;;;8.00;7.40;;;2.80;65.50;;;;;;5077150;28;20219;-78
2023/04/05 04:59:37;;;;;;;8.32;7.63;;;2.70;66.10;;;;;;5076583;28;20459;-79
2023/04/05 05:02:07;;;;;;;8.75;8.13;;;2.60;67.20;;;;;;5072752;28;20321;-80
2023/04/05 05:04:35;;;;;;;8.63;8.13;;;2.60;79.60;;;;;;5084029;28;20204;-79
2023/04/05 05:07:03;;;;;;;8.90;8.07;;;2.70;82.00;;;;;;5079625;28;20311;-79
2023/04/05 05:09:32;;;;;;;9.32;8.50;;;2.70;80.90;;;;;;5082970;28;20199;-77
2023/04/05 05:12:00;;;;;;;7.78;7.25;;;2.70;79.10;;;;;;5081042;28;20321;-78
2023/04/05 05:14:29;;;;;;;8.02;7.43;;;2.70;79.90;;;;;;5081604;28;20199;-80
2023/04/05 05:16:57;;;;;;;9.15;8.50;;;2.60;82.20;;;;;;5074983;28;20487;-79
2023/04/05 05:19:26;;;;;;;8.75;8.05;;;2.40;83.60;;;;;;5076020;28;20198;-79
2023/04/05 05:21:54;;;;;;;8.80;8.10;;;2.60;90.60;;;;;;5074896;28;20223;-78
2023/04/05 05:24:22;;;;;;;8.52;7.80;;;2.70;89.20;;;;;;5076758;28;20209;-80
2023/04/05 05:26:51;;;;;;;8.85;8.05;;;2.70;84.30;;;;;;5073368;28;20291;-79
2023/04/05 05:29:20;;;;;;;9.10;8.30;;;2.70;86.60;;;;;;5071604;28;20196;-79
2023/04/05 05:31:48;;;;;;;9.07;8.25;;;2.70;86.10;;;;;;5066296;28;20218;-79
2023/04/05 05:34:16;;;;;;;8.82;8.13;;;2.60;90.70;;;;;;5071337;28;20250;-79
2023/04/05 05:36:44;;;;;;;9.02;8.32;;;2.70;93.10;;;;;;5073892;28;20209;-79
2023/04/05 05:39:12;;;;;;;9.85;9.10;;;2.70;93.30;;;;;;5072830;28;20195;-78
2023/04/05 05:41:40;;;;;;;10.45;9.57;;;2.70;93.10;;;;;;5076150;28;20302;-79
2023/04/05 05:44:10;;;;;;;9.80;8.93;;;2.70;93.20;;;;;;5077632;28;20623;-78
2023/04/05 05:46:38;;;;;;;9.55;8.75;;;2.80;93.30;;;;;;5078009;28;20210;-79
2023/04/05 05:49:06;;;;;;;9.52;8.82;;;2.70;94.80;;;;;;5077241;28;20201;-77
2023/04/05 05:51:35;;;;;;;10.20;9.30;;;2.70;97.80;;;;;;5074605;28;20683;-78
2023/04/05 05:54:03;;;;;;;10.20;9.30;;;2.70;99.90;;;;;;5075478;28;20201;-78
2023/04/05 05:56:31;;;;;;;9.20;8.40;;;2.80;99.90;;;;;;5073546;28;20676;-78
2023/04/05 05:59:00;;;;;;;11.02;9.95;;;2.90;99.90;;;;;;5073739;28;20200;-78
2023/04/05 06:01:33;;;;;;;10.23;9.38;;;3.10;99.90;;;;;;5076491;28;20218;-79
2023/04/05 06:04:01;;;;;;;11.63;10.43;;;3.20;98.90;;;;;;5079155;28;20197;-80
2023/04/05 06:06:29;;;;;;;10.50;9.80;;;3.20;96.10;;;;;;5070754;28;20622;-77
2023/04/05 06:08:58;;;;;;;12.23;11.00;;;3.30;96.40;;;;;;5076491;28;20202;-79
2023/04/05 06:11:26;;;;;;;12.25;11.35;;;3.60;95.30;;;;;;5075005;28;20270;-79
2023/04/05 06:13:54;;;;;;;12.82;11.73;;;3.90;93.60;;;;;;5074715;28;20279;-80
2023/04/05 06:16:22;;;;;;;12.48;11.23;;;4.00;93.30;;;;;;5076221;28;20214;-79
2023/04/05 06:18:54;;;;;;;10.95;10.05;;;4.30;90.00;;;;;;5072058;28;20200;-80
2023/04/05 06:21:22;;;;;;;10.77;9.60;;;4.60;83.40;;;;;;5079960;28;20223;-78
2023/04/05 06:23:50;;;;;;;11.80;10.60;;;4.70;75.80;;;;;;5083617;28;20573;-79
2023/04/05 06:26:20;;;;;;;11.65;10.32;;;4.80;70.90;;;;;;5079445;28;20303;-78
2023/04/05 06:28:48;;;;;;;11.03;9.90;;;4.80;65.80;;;;;;5077860;28;20211;-78
2023/04/05 06:31:17;;;;;;;11.90;10.90;;;5.00;64.70;;;;;;5076118;28;21315;-79
2023/04/05 06:33:45;;;;;;;14.05;10.95;;;5.20;64.00;;;;;;5073029;28;20442;-79
2023/04/05 06:36:14;;;;;;;11.63;10.57;;;5.30;62.60;;;;;;5078859;28;20211;-78
2023/04/05 06:38:42;;;;;;;11.85;10.95;;;5.40;69.90;;;;;;5064317;28;20203;-77
2023/04/05 06:41:11;;;;;;;11.67;10.67;;;5.40;56.00;;;;;;5081446;28;20218;-77
2023/04/05 06:43:39;;;;;;;11.90;10.67;;;5.40;54.20;;;;;;5080773;28;20453;-78
2023/04/05 06:46:10;;;;;;;11.17;10.30;;;5.50;55.20;;;;;;5080145;28;21029;-76
2023/04/05 06:48:38;;;;;;;10.63;9.83;;;5.50;52.10;;;;;;5079280;28;20540;-78
2023/04/05 06:51:07;;;;;;;11.60;10.47;;;5.70;50.40;;;;;;5080717;28;20489;-77
2023/04/05 06:53:36;;;;;;;12.30;10.63;;;5.80;47.50;;;;;;5077556;28;20472;-77
2023/04/05 06:56:05;;;;;;;11.87;10.87;;;5.90;46.10;;;;;;5081181;28;20458;-77
2023/04/05 06:58:33;;;;;;;10.32;9.43;;;6.00;43.20;;;;;;5079066;28;20455;-80
2023/04/05 07:01:01;;;;;;;9.73;9.03;;;6.20;37.50;;;;;;5080358;28;20269;-80
2023/04/05 07:03:29;;;;;;;9.47;8.87;;;6.20;33.50;;;;;;5081369;28;20453;-80
2023/04/05 07:06:00;;;;;;;10.13;9.33;;;6.20;31.40;;;;;;5083672;28;20489;-78
2023/04/05 07:08:30;;;;;;;9.27;8.57;;;6.40;32.20;;;;;;5081573;28;20448;-80
2023/04/05 07:11:00;;;;;;;8.40;7.80;;;6.40;27.90;;;;;;5083339;28;20473;-80
2023/04/05 07:13:28;;;;;;;9.80;9.20;;;6.40;23.70;;;;;;5086090;28;20462;-79
2023/04/05 07:16:01;;;;;;;11.87;9.10;;;6.40;24.20;;;;;;5084935;28;20450;-79
2023/04/05 07:18:29;;;;;;;9.97;9.27;;;6.50;24.80;;;;;;5085028;28;20446;-79
2023/04/05 07:21:02;;;;;;;8.77;7.90;;;6.60;24.00;;;;;;5086011;28;20453;-78
2023/04/05 07:23:31;;;;;;;9.43;8.73;;;7.00;24.30;;;;;;5084929;28;20458;-78
2023/04/05 07:26:03;;;;;;;9.07;8.47;;;7.30;25.70;;;;;;5086041;28;20461;-81
2023/04/05 07:28:34;;;;;;;8.53;7.73;;;7.40;24.40;;;;;;5086782;28;20439;-80
2023/04/05 07:31:03;;;;;;;7.87;7.27;;;7.60;20.60;;;;;;5086097;28;20473;-80
2023/04/05 07:33:31;;;;;;;8.67;8.17;;;7.80;20.60;;;;;;5073741;28;20489;-78
2023/04/05 07:35:59;;;;;;;8.27;7.67;;;7.90;20.50;;;;;;5087921;28;20462;-81
2023/04/05 07:38:27;;;;;;;7.67;7.17;;;8.00;16.30;;;;;;5086991;28;20541;-80
2023/04/05 07:40:56;;;;;;;7.80;7.23;;;8.10;13.40;;;;;;5083039;28;20510;-79
2023/04/05 07:43:25;;;;;;;7.87;7.30;;;8.20;15.00;;;;;;5086103;28;20459;-81
2023/04/05 07:46:01;;;;;;;7.67;7.17;;;8.50;14.80;;;;;;5086246;28;20458;-77
2023/04/05 07:48:29;;;;;;;8.40;7.70;;;8.60;15.00;;;;;;5082437;28;20459;-77
2023/04/05 07:51:03;;;;;;;8.00;7.60;;;8.60;12.80;;;;;;5087066;28;20547;-80
2023/04/05 07:53:32;;;;;;;7.30;6.90;;;8.70;9.60;;;;;;5089980;28;20554;-77
2023/04/05 07:56:04;;;;;;;7.27;6.90;;;8.70;9.00;;;;;;5091087;28;20765;-78
2023/04/05 07:58:34;;;;;;;7.50;7.00;;;8.70;8.00;;;;;;5089805;28;20452;-76
2023/04/05 08:01:03;;;;;;;8.77;8.03;;;8.50;3.70;;;;;;5085706;28;20501;-78
2023/04/05 08:03:33;;;;;;;7.43;6.83;;;8.60;4.70;;;;;;5088454;28;21074;-77
2023/04/05 08:06:10;;;;;;;7.57;7.17;;;8.70;2.60;;;;;;5088010;28;20490;-78
2023/04/05 08:08:38;;;;;;;7.50;7.10;;;8.60;1.00;;;;;;5087240;28;21339;-79
2023/04/05 08:11:06;;;;;;;6.93;6.53;;;8.40;1.00;;;;;;5088548;28;20473;-78
2023/04/05 08:13:39;;;;;;;7.70;7.10;;;8.40;1.00;;;;;;5089220;28;20478;-78
2023/04/05 08:16:08;;;;;;;8.27;7.67;;;8.50;1.00;;;;;;5086163;28;20446;-77
2023/04/05 08:18:36;;;;;;;8.13;7.53;;;8.60;1.00;;;;;;5086112;28;20453;-77
2023/04/05 08:21:05;;;;;;;8.57;7.90;;;8.60;1.00;;;;;;5087588;28;20503;-77
2023/04/05 08:23:33;;;;;;;7.90;7.10;;;8.80;1.00;;;;;;5087483;28;20474;-79
2023/04/05 08:26:01;;;;;;;6.83;6.43;;;8.50;1.00;;;;;;5087712;28;21017;-80
2023/04/05 08:28:29;;;;;;;6.37;6.07;;;8.70;1.00;;;;;;5088072;28;20528;-78
2023/04/05 08:30:59;;;;;;;7.90;7.50;;;8.80;1.00;;;;;;5088521;28;21197;-77
2023/04/05 08:33:29;;;;;;;8.17;7.57;;;8.70;6.20;;;;;;5079736;28;20487;-77
2023/04/05 08:35:58;;;;;;;6.63;6.30;;;8.80;1.00;;;;;;5088467;28;20480;-78
2023/04/05 08:38:26;;;;;;;9.00;8.30;;;8.70;1.00;;;;;;5090970;28;20451;-78
2023/04/05 08:40:54;;;;;;;7.20;6.70;;;8.70;1.00;;;;;;5086784;28;20895;-78
2023/04/05 08:43:28;;;;;;;8.90;8.07;;;8.60;1.00;;;;;;5088670;28;20453;-77
2023/04/05 08:45:59;;;;;;;6.50;6.20;;;8.60;1.00;;;;;;5085280;28;20460;-79
2023/04/05 08:48:31;;;;;;;6.60;6.20;;;8.70;1.00;;;;;;5084793;28;20440;-77
2023/04/05 08:50:59;;;;;;;8.47;7.67;;;8.80;1.00;;;;;;5088111;28;20440;-76
2023/04/05 08:53:28;;;;;;;6.70;6.23;;;8.90;1.00;;;;;;5087297;28;20541;-78
2023/04/05 08:55:58;;;;;;;7.17;6.67;;;8.80;1.00;;;;;;5085504;28;20465;-80
2023/04/05 08:58:27;;;;;;;6.23;5.93;;;8.90;1.00;;;;;;5089057;28;20444;-81
2023/04/05 09:00:57;;;;;;;6.70;6.30;;;9.00;2.70;;;;;;5084779;28;20973;-79
2023/04/05 09:03:31;;;;;;;7.30;6.70;;;9.20;1.00;;;;;;5086527;28;20976;-79
2023/04/05 09:06:00;;;;;;;8.03;7.40;;;9.30;1.00;;;;;;5089609;28;20531;-79
2023/04/05 09:08:28;;;;;;;6.97;6.47;;;9.40;1.00;;;;;;5088165;28;20457;-80
2023/04/05 09:10:56;;;;;;;22.23;14.20;;;9.50;1.00;;;;;;5090375;28;20555;-80
2023/04/05 09:13:24;;;;;;;36.23;21.47;;;9.60;1.00;;;;;;5086287;28;20493;-84
2023/04/05 09:15:52;;;;;;;14.53;12.40;;;9.40;1.00;;;;;;5089801;28;20539;-82
2023/04/05 09:18:20;;;;;;;8.47;7.87;;;9.30;1.00;;;;;;5085853;28;21009;-79
2023/04/05 09:21:03;;;;;;;7.83;7.33;;;9.40;1.00;;;;;;5085717;28;20442;-79
2023/04/05 09:23:33;;;;;;;7.00;6.50;;;9.40;1.00;;;;;;5105197;28;21029;-77
2023/04/05 09:26:03;;;;;;;7.23;6.63;;;9.30;1.00;;;;;;5087493;28;20453;-80
2023/04/05 09:28:42;;;;;;;5.90;5.60;;;9.30;1.00;;;;;;5087249;28;20439;-79
2023/04/05 09:31:28;;;;;;;6.30;5.80;;;9.20;1.00;;;;;;5081892;28;20610;-80
2023/04/05 09:33:58;;;;;;;6.50;5.90;;;9.20;1.00;;;;;;5081447;28;20483;-78
2023/04/05 09:36:28;;;;;;;6.97;6.57;;;9.30;1.00;;;;;;5081515;28;21283;-81
2023/04/05 09:39:06;;;;;;;6.30;5.90;;;9.40;1.00;;;;;;5083690;28;20442;-81
2023/04/05 09:41:35;;;;;;;5.70;5.50;;;9.40;1.00;;;;;;5082430;28;21475;-81
2023/04/05 09:44:03;;;;;;;6.60;6.27;;;9.60;1.00;;;;;;5084044;28;20456;-81
2023/04/05 09:46:34;;;;;;;7.20;6.70;;;9.70;1.00;;;;;;5083093;28;20545;-82
2023/04/05 09:49:05;;;;;;;6.50;6.20;;;9.80;1.00;;;;;;5082166;28;20537;-81
2023/04/05 09:51:36;;;;;;;6.20;5.77;;;9.80;1.00;;;;;;5082472;28;20526;-81
2023/04/05 09:54:06;;;;;;;6.70;6.20;;;9.80;1.00;;;;;;5081962;28;21033;-81
2023/04/05 09:56:35;;;;;;;6.23;5.83;;;9.90;1.00;;;;;;5083277;28;21168;-80
2023/04/05 09:59:09;;;;;;;6.50;6.10;;;9.90;1.00;;;;;;5083209;28;20444;-81
2023/04/05 10:01:38;;;;;;;7.07;6.57;;;9.50;1.00;;;;;;5084997;28;20532;-81
2023/04/05 10:04:08;;;;;;;6.40;6.00;;;9.60;1.00;;;;;;5084750;28;20471;-81
2023/04/05 10:06:39;;;;;;;7.83;7.07;;;9.70;1.00;;;;;;5085457;28;20453;-84
2023/04/05 10:09:13;;;;;;;7.07;6.57;;;9.90;1.00;;;;;;5085850;28;20544;-82
2023/04/05 10:11:44;;;;;;;7.27;6.77;;;9.90;1.00;;;;;;5084127;28;20508;-83
2023/04/05 10:14:12;;;;;;;7.30;6.67;;;9.70;1.00;;;;;;5085291;28;20480;-83
2023/04/05 10:16:49;;;;;;;6.23;5.83;;;9.90;1.00;;;;;;5086058;28;20518;-82
2023/04/05 10:19:26;;;;;;;6.17;5.77;;;9.80;1.00;;;;;;5083799;28;21218;-83
2023/04/05 10:22:00;;;;;;;6.97;6.47;;;9.90;1.00;;;;;;5085067;28;21073;-81
2023/04/05 10:24:36;;;;;;;6.07;5.77;;;10.00;1.00;;;;;;5086699;28;20456;-84
2023/04/05 10:27:08;;;;;;;5.77;5.47;;;10.10;1.00;;;;;;5082844;28;20486;-82
2023/04/05 10:29:44;;;;;;;7.80;7.07;;;10.10;1.00;;;;;;5083896;28;20469;-84
2023/04/05 10:32:23;;;;;;;6.30;5.90;;;9.60;1.00;;;;;;5074874;28;20472;-83
2023/04/05 10:34:57;;;;;;;5.90;5.60;;;9.80;1.00;;;;;;5081539;28;20480;-83
2023/04/05 10:37:47;;;;;;;6.20;5.90;;;10.00;1.00;;;;;;5085320;28;20460;-82
2023/04/05 10:40:20;;;;;;;5.90;5.60;;;10.10;1.00;;;;;;5084901;28;20882;-84
2023/04/05 10:42:49;;;;;;;6.47;5.90;;;9.70;1.00;;;;;;5083164;28;20931;-83
2023/04/05 10:45:21;;;;;;;6.43;6.03;;;9.80;1.00;;;;;;5084035;28;20456;-82
2023/04/05 10:47:54;;;;;;;5.83;5.63;;;9.90;1.00;;;;;;5082031;28;20548;-83
2023/04/05 10:50:24;;;;;;;7.30;6.30;;;10.10;1.00;;;;;;5088233;28;20477;-83
2023/04/05 10:52:53;;;;;;;6.77;6.27;;;10.00;1.00;;;;;;5087105;28;20551;-81
2023/04/05 10:55:22;;;;;;;5.80;5.43;;;10.00;1.00;;;;;;5084781;28;20458;-83
2023/04/05 10:57:51;;;;;;;5.50;5.20;;;9.80;1.00;;;;;;5089307;28;20441;-82
2023/04/05 11:00:20;;;;;;;6.07;5.73;;;9.90;1.00;;;;;;5088782;28;20218;-83
2023/04/05 11:02:53;;;;;;;5.53;5.03;;;10.10;1.00;;;;;;5092667;28;20543;-85
2023/04/05 11:05:32;;;;;;;5.40;5.10;;;10.30;1.00;;;;;;5090373;28;20520;-83
2023/04/05 11:08:04;;;;;;;6.10;5.60;;;10.30;1.00;;;;;;5091863;28;20445;-83
2023/04/05 11:10:36;;;;;;;5.27;5.00;;;10.40;1.00;;;;;;5089229;28;20448;-81
2023/04/05 11:13:09;;;;;;;5.80;5.50;;;10.40;1.00;;;;;;5085845;28;20830;-83
2023/04/05 11:15:38;;;;;;;6.40;5.80;;;10.50;1.00;;;;;;5085885;28;20448;-83
2023/04/05 11:18:11;;;;;;;6.00;5.70;;;10.40;1.00;;;;;;5088072;28;21011;-82
2023/04/05 11:20:44;;;;;;;6.50;6.10;;;10.50;1.00;;;;;;5087412;28;20545;-83
2023/04/05 11:23:15;;;;;;;5.93;5.53;;;10.70;1.00;;;;;;5088933;28;20453;-84
2023/04/05 11:25:48;;;;;;;5.63;5.33;;;10.70;1.00;;;;;;5087221;28;20449;-84
2023/04/05 11:28:30;;;;;;;6.13;5.72;;;10.80;1.00;;;;;;5084018;28;20436;-83
2023/04/05 11:31:12;;;;;;;5.93;5.53;;;11.00;5.80;;;;;;5088240;28;20672;-82
2023/04/05 11:34:09;;;;;;;5.60;5.20;;;11.10;1.00;;;;;;5071854;28;20593;-83
2023/04/05 11:36:40;;;;;;;6.63;6.13;;;11.20;1.00;;;;;;5084762;28;20782;-81
2023/04/05 11:39:29;;;;;;;9.07;8.17;;;11.30;1.00;;;;;;5082784;28;20457;-82
2023/04/05 11:42:01;;;;;;;6.67;6.37;;;11.40;1.00;;;;;;5079610;28;20516;-83
2023/04/05 11:44:39;;;;;;;6.80;6.40;;;11.40;1.00;;;;;;5083329;28;20446;-84
2023/04/05 11:47:07;;;;;;;6.43;5.97;;;11.50;1.00;;;;;;5085524;28;20453;-83
2023/04/05 11:49:35;;;;;;;6.13;5.83;;;11.40;1.00;;;;;;5086540;28;20449;-85
2023/04/05 11:52:11;;;;;;;6.77;6.27;;;11.50;1.00;;;;;;5086125;28;20531;-84
2023/04/05 11:54:44;;;;;;;6.83;6.53;;;11.40;1.00;;;;;;5083434;28;20474;-83
2023/04/05 11:57:16;;;;;;;6.27;6.00;;;11.40;1.00;;;;;;5086722;28;20450;-82
2023/04/05 11:59:44;;;;;;;29.60;16.30;;;11.40;1.00;;;;;;5081272;28;20471;-82
2023/04/05 12:02:13;;;;;;;7.27;6.63;;;11.50;1.00;;;;;;5082965;28;21125;-83
2023/04/05 12:04:41;;;;;;;7.50;5.90;;;11.30;1.00;;;;;;5087592;28;20453;-80
2023/04/05 12:07:14;;;;;;;7.27;6.77;;;11.40;1.00;;;;;;5083672;28;20985;-81
2023/04/05 12:10:06;;;;;;;6.50;6.03;;;11.50;1.00;;;;;;5083282;28;20465;-83
2023/04/05 12:12:39;;;;;;;5.80;5.50;;;11.50;1.00;;;;;;5088570;28;20500;-83
2023/04/05 12:15:09;;;;;;;6.50;6.20;;;11.50;1.00;;;;;;5088134;28;20982;-81
2023/04/05 12:17:56;;;;;;;7.47;7.07;;;11.60;1.00;;;;;;5082946;28;20458;-83
2023/04/05 12:20:25;;;;;;;6.57;6.10;;;11.30;1.00;;;;;;5089058;28;20457;-83
2023/04/05 12:22:55;;;;;;;6.30;6.00;;;11.00;1.00;;;;;;5085101;28;20476;-82
2023/04/05 12:25:26;;;;;;;7.20;6.70;;;11.10;1.00;;;;;;5090904;28;20464;-82
2023/04/05 12:27:54;;;;;;;7.03;6.53;;;11.20;1.00;;;;;;5088923;28;20825;-84
2023/04/05 12:30:23;;;;;;;7.20;6.70;;;11.20;1.00;;;;;;5085387;28;20553;-83
2023/04/05 12:32:54;;;;;;;7.30;6.80;;;11.10;1.00;;;;;;5081341;28;20437;-84
2023/04/05 12:35:25;;;;;;;7.03;6.73;;;11.20;1.00;;;;;;5092521;28;20780;-82
2023/04/05 12:37:57;;;;;;;6.90;6.50;;;11.20;1.00;;;;;;5090818;28;20449;-81
2023/04/05 12:40:29;;;;;;;7.60;7.07;;;11.20;1.00;;;;;;5087466;28;20520;-83
2023/04/05 12:43:02;;;;;;;7.43;7.00;;;11.30;1.00;;;;;;5089938;28;20469;-82
2023/04/05 12:45:38;;;;;;;7.00;6.50;;;11.00;1.00;;;;;;5091182;28;20457;-83
2023/04/05 12:48:10;;;;;;;6.93;6.47;;;11.10;1.00;;;;;;5092682;28;20454;-81
2023/04/05 12:50:43;;;;;;;7.80;7.20;;;11.20;1.00;;;;;;5089599;28;20446;-81
2023/04/05 12:53:19;;;;;;;7.30;6.60;;;11.40;1.00;;;;;;5087449;28;20523;-81
2023/04/05 12:55:53;;;;;;;7.47;6.97;;;11.50;1.00;;;;;;5090448;28;20468;-81
2023/04/05 12:58:23;;;;;;;7.00;6.60;;;11.60;1.00;;;;;;5091981;28;20446;-79
2023/04/05 13:00:51;;;;;;;7.37;6.90;;;11.60;1.00;;;;;;5090033;28;20476;-82
2023/04/05 13:03:22;;;;;;;8.00;7.43;;;11.40;1.00;;;;;;5091064;28;20454;-82
2023/04/05 13:05:50;;;;;;;6.73;6.27;;;11.50;1.00;;;;;;5086470;28;20449;-79
2023/04/05 13:08:19;;;;;;;6.63;6.20;;;11.30;1.00;;;;;;5083758;28;20459;-82
2023/04/05 13:10:49;;;;;;;7.20;6.70;;;11.10;1.00;;;;;;5090513;28;20463;-83
2023/04/05 13:13:19;;;;;;;6.50;6.00;;;11.10;1.00;;;;;;5091619;28;21018;-80
2023/04/05 13:15:48;;;;;;;7.03;6.57;;;11.20;1.00;;;;;;5090137;28;20481;-85
2023/04/05 13:18:19;;;;;;;7.20;6.60;;;11.30;1.00;;;;;;5080825;28;20466;-85